Hoag, Nebraska
Current Conditions -  °F | °C
As of 8:55 PM on Friday 21 Nov 2014 (Local Time) from KBIE Reporting Station
Haze Haze  
Wind Chill: 29°   Ceiling: 200
Heat Index: 36°   Visibility: 2mi
Dew Point: 36°   Wind: 8mph
Humidity: 100%   Direction: 170°S
Pressure: 30.02"   Gusts: NA
Location:  40.2674°N, 96.7699°W
Report Text: KBIE 220255Z AUTO 17007KT 2SM BR OVC002 02/02 A3002 RMK AO2 T00200020
Loading
Personal Weather Stations






























Interactive Weather Map New forecast layout! Learn more

10-Day Weather Forecast

Advertisements
Track Severe Weather on mobile